createdAt,value
2018-12-20T00:00:43.751Z,1002.93
2018-12-20T00:01:43.512Z,1002.91
2018-12-20T00:02:43.566Z,1002.97
2018-12-20T00:04:44.256Z,1002.97
2018-12-20T00:05:43.688Z,1002.92
2018-12-20T00:06:43.702Z,1002.94
2018-12-20T00:07:43.600Z,1002.97
2018-12-20T00:08:43.699Z,1002.97
2018-12-20T00:09:43.665Z,1002.92
2018-12-20T00:10:43.660Z,1002.93
2018-12-20T00:11:43.656Z,1002.96
2018-12-20T00:12:43.807Z,1002.97
2018-12-20T00:13:43.700Z,1002.97
2018-12-20T00:14:43.710Z,1002.98
2018-12-20T00:15:43.720Z,1002.96
2018-12-20T00:16:43.774Z,1003.01
2018-12-20T00:17:43.761Z,1002.96
2018-12-20T00:18:43.757Z,1002.99
2018-12-20T00:19:43.777Z,1003.01
2018-12-20T00:20:43.829Z,1002.99
2018-12-20T00:21:43.800Z,1002.97
2018-12-20T00:22:43.846Z,1003.00
2018-12-20T00:23:43.824Z,1002.99
2018-12-20T00:24:43.869Z,1002.98
2018-12-20T00:25:43.887Z,1002.99
2018-12-20T00:26:43.909Z,1002.94
2018-12-20T00:27:43.934Z,1002.94
2018-12-20T00:28:43.906Z,1003.00
2018-12-20T00:29:44.052Z,1002.95
2018-12-20T00:30:43.949Z,1002.93
2018-12-20T00:31:44.002Z,1002.94
2018-12-20T00:32:43.962Z,1002.95
2018-12-20T00:33:44.147Z,1002.96
2018-12-20T00:34:44.011Z,1002.98
2018-12-20T00:35:44.111Z,1002.96
2018-12-20T00:36:44.127Z,1002.99
2018-12-20T00:37:44.094Z,1002.96
2018-12-20T00:39:44.058Z,1003.01
2018-12-20T00:40:44.099Z,1002.97
2018-12-20T00:41:44.182Z,1003.00
2018-12-20T00:42:44.125Z,1002.97
2018-12-20T00:43:44.161Z,1002.96
2018-12-20T00:44:44.133Z,1002.94
2018-12-20T00:45:44.252Z,1002.96
2018-12-20T00:46:44.258Z,1002.98
2018-12-20T00:47:44.312Z,1002.96
2018-12-20T00:49:44.372Z,1003.02
2018-12-20T00:50:44.238Z,1003.01
2018-12-20T00:51:44.236Z,1002.97
2018-12-20T00:52:44.248Z,1002.98
2018-12-20T00:53:44.365Z,1003.02
2018-12-20T00:54:44.319Z,1003.03
2018-12-20T00:55:44.289Z,1003.03
2018-12-20T00:56:44.309Z,1003.03
2018-12-20T00:57:44.423Z,1003.08
2018-12-20T00:58:44.334Z,1003.03
2018-12-20T00:59:44.430Z,1003.05
2018-12-20T01:00:44.382Z,1003.05
2018-12-20T01:01:44.501Z,1003.03
2018-12-20T01:02:44.417Z,1003.11
2018-12-20T01:03:44.582Z,1003.10
2018-12-20T01:04:44.499Z,1003.13
2018-12-20T01:05:44.491Z,1003.17
2018-12-20T01:06:44.475Z,1003.21
2018-12-20T01:08:05.578Z,1003.17
2018-12-20T01:08:44.624Z,1003.16
2018-12-20T01:09:44.494Z,1003.12
2018-12-20T01:10:44.540Z,1003.16
2018-12-20T01:11:44.546Z,1003.13
2018-12-20T01:12:44.649Z,1003.15
2018-12-20T01:13:44.557Z,1003.16
2018-12-20T01:14:45.471Z,1003.16
2018-12-20T01:15:44.581Z,1003.18
2018-12-20T01:16:44.701Z,1003.21
2018-12-20T01:17:44.612Z,1003.27
2018-12-20T01:18:44.627Z,1003.29
2018-12-20T01:19:44.643Z,1003.30
2018-12-20T01:20:44.669Z,1003.31
2018-12-20T01:22:44.688Z,1003.36
2018-12-20T01:23:44.723Z,1003.38
2018-12-20T01:24:44.808Z,1003.36
2018-12-20T01:25:44.738Z,1003.38
2018-12-20T01:26:44.759Z,1003.34
2018-12-20T01:27:44.758Z,1003.35
2018-12-20T01:28:44.769Z,1003.36
2018-12-20T01:29:44.855Z,1003.34
2018-12-20T01:30:44.913Z,1003.36
2018-12-20T01:31:44.825Z,1003.34
2018-12-20T01:32:44.915Z,1003.32
2018-12-20T01:34:44.990Z,1003.30
2018-12-20T01:35:44.869Z,1003.28
2018-12-20T01:36:44.888Z,1003.25
2018-12-20T01:37:44.901Z,1003.26
2018-12-20T01:38:44.949Z,1003.33
2018-12-20T01:39:44.951Z,1003.33
2018-12-20T01:40:44.974Z,1003.34
2018-12-20T01:41:45.060Z,1003.33
2018-12-20T01:42:44.981Z,1003.36
2018-12-20T01:43:45.058Z,1003.39
2018-12-20T01:44:45.050Z,1003.41
2018-12-20T01:45:45.020Z,1003.40
2018-12-20T01:46:45.176Z,1003.39
2018-12-20T01:47:45.044Z,1003.43
2018-12-20T01:48:45.260Z,1003.44
2018-12-20T01:49:45.253Z,1003.47
2018-12-20T01:50:45.085Z,1003.48
2018-12-20T01:51:45.169Z,1003.47
2018-12-20T01:52:45.143Z,1003.51
2018-12-20T01:53:45.165Z,1003.52
2018-12-20T01:54:45.155Z,1003.52
2018-12-20T01:56:45.185Z,1003.56
2018-12-20T01:57:45.224Z,1003.57
2018-12-20T01:58:45.327Z,1003.49
2018-12-20T01:59:45.212Z,1003.52
2018-12-20T02:00:45.231Z,1003.54
2018-12-20T02:02:45.454Z,1003.54
2018-12-20T02:03:45.357Z,1003.57
2018-12-20T02:04:45.292Z,1003.56
2018-12-20T02:05:45.441Z,1003.57
2018-12-20T02:06:45.331Z,1003.54
2018-12-20T02:07:45.339Z,1003.57
2018-12-20T02:08:45.362Z,1003.54
2018-12-20T02:09:45.387Z,1003.49
2018-12-20T02:10:45.383Z,1003.57
2018-12-20T02:11:45.421Z,1003.61
2018-12-20T02:12:45.417Z,1003.59
2018-12-20T02:13:45.450Z,1003.59
2018-12-20T02:14:45.596Z,1003.58
2018-12-20T02:15:45.454Z,1003.56
2018-12-20T02:16:45.497Z,1003.55
2018-12-20T02:17:45.542Z,1003.53
2018-12-20T02:18:45.487Z,1003.55
2018-12-20T02:19:45.592Z,1003.50
2018-12-20T02:20:45.516Z,1003.52
2018-12-20T02:21:45.554Z,1003.55
2018-12-20T02:22:45.549Z,1003.50
2018-12-20T02:23:45.562Z,1003.49
2018-12-20T02:24:45.754Z,1003.49
2018-12-20T02:26:45.716Z,1003.41
2018-12-20T02:27:45.791Z,1003.43
2018-12-20T02:28:45.638Z,1003.43
2018-12-20T02:29:45.700Z,1003.42
2018-12-20T02:30:45.689Z,1003.43
2018-12-20T02:31:46.116Z,1003.45
2018-12-20T02:32:45.834Z,1003.44
2018-12-20T02:33:45.776Z,1003.43
2018-12-20T02:34:45.725Z,1003.43
2018-12-20T02:35:45.791Z,1003.34
2018-12-20T02:36:45.973Z,1003.38
2018-12-20T02:37:45.765Z,1003.39
2018-12-20T02:39:45.797Z,1003.37
2018-12-20T02:41:45.969Z,1003.37
2018-12-20T02:42:45.930Z,1003.36
2018-12-20T02:43:45.850Z,1003.38
2018-12-20T02:44:45.864Z,1003.37
2018-12-20T02:45:46.064Z,1003.36
2018-12-20T02:46:45.894Z,1003.34
2018-12-20T02:47:45.963Z,1003.35
2018-12-20T02:48:45.945Z,1003.32
2018-12-20T02:49:45.943Z,1003.33
2018-12-20T02:50:45.953Z,1003.34
2018-12-20T02:51:45.979Z,1003.36
2018-12-20T02:52:46.030Z,1003.39
2018-12-20T02:53:46.035Z,1003.37
2018-12-20T02:54:46.183Z,1003.41
2018-12-20T02:55:46.036Z,1003.40
2018-12-20T02:56:46.355Z,1003.40
2018-12-20T02:57:46.211Z,1003.39
2018-12-20T02:58:46.073Z,1003.38
2018-12-20T02:59:46.081Z,1003.33
2018-12-20T03:00:46.257Z,1003.33
2018-12-20T03:01:46.244Z,1003.33
2018-12-20T03:02:46.284Z,1003.29
2018-12-20T03:03:46.229Z,1003.31
2018-12-20T03:04:46.270Z,1003.28
2018-12-20T03:05:46.500Z,1003.31
2018-12-20T03:06:46.261Z,1003.30
2018-12-20T03:07:46.384Z,1003.29
2018-12-20T03:08:46.250Z,1003.27
2018-12-20T03:09:46.500Z,1003.29
2018-12-20T03:10:46.591Z,1003.28
2018-12-20T03:11:46.281Z,1003.32
2018-12-20T03:12:46.467Z,1003.26
2018-12-20T03:13:46.411Z,1003.26
2018-12-20T03:14:46.383Z,1003.24
2018-12-20T03:15:46.512Z,1003.26
2018-12-20T03:16:46.337Z,1003.26
2018-12-20T03:17:46.516Z,1003.25
2018-12-20T03:18:46.485Z,1003.22
2018-12-20T03:19:46.388Z,1003.21
2018-12-20T03:20:46.435Z,1003.23
2018-12-20T03:21:46.530Z,1003.22
2018-12-20T03:22:46.697Z,1003.22
2018-12-20T03:23:46.490Z,1003.23
2018-12-20T03:24:46.528Z,1003.22
2018-12-20T03:25:46.466Z,1003.27
2018-12-20T03:26:46.539Z,1003.24
2018-12-20T03:27:46.767Z,1003.25
2018-12-20T03:28:46.517Z,1003.29
2018-12-20T03:29:46.591Z,1003.31
2018-12-20T03:30:46.540Z,1003.30
2018-12-20T03:31:46.562Z,1003.32
2018-12-20T03:32:46.585Z,1003.27
2018-12-20T03:33:46.603Z,1003.27
2018-12-20T03:34:46.709Z,1003.27
2018-12-20T03:35:46.620Z,1003.22
2018-12-20T03:36:46.837Z,1003.23
2018-12-20T03:37:46.686Z,1003.21
2018-12-20T03:38:46.865Z,1003.21
2018-12-20T03:40:46.868Z,1003.22
2018-12-20T03:41:46.969Z,1003.21
2018-12-20T03:42:46.852Z,1003.20
2018-12-20T03:43:46.810Z,1003.20
2018-12-20T03:44:47.002Z,1003.20
2018-12-20T03:45:46.780Z,1003.21
2018-12-20T03:46:47.007Z,1003.20
2018-12-20T03:47:46.988Z,1003.20
2018-12-20T03:48:46.955Z,1003.21
2018-12-20T03:49:47.003Z,1003.24
2018-12-20T03:50:46.834Z,1003.29
2018-12-20T03:51:46.864Z,1003.26
2018-12-20T03:52:46.878Z,1003.23
2018-12-20T03:53:47.015Z,1003.27
2018-12-20T03:54:47.104Z,1003.25
2018-12-20T03:55:47.240Z,1003.26
2018-12-20T03:56:46.955Z,1003.27
2018-12-20T03:57:47.040Z,1003.27
2018-12-20T03:58:47.055Z,1003.25
2018-12-20T03:59:46.992Z,1003.24
2018-12-20T04:00:47.034Z,1003.26
2018-12-20T04:01:47.297Z,1003.22
2018-12-20T04:02:47.017Z,1003.25
2018-12-20T04:03:47.230Z,1003.22
2018-12-20T04:04:47.388Z,1003.25
2018-12-20T04:05:47.141Z,1003.23
2018-12-20T04:06:47.286Z,1003.25
2018-12-20T04:07:47.228Z,1003.22
2018-12-20T04:08:47.182Z,1003.25
2018-12-20T04:09:47.120Z,1003.24
2018-12-20T04:10:47.126Z,1003.24
2018-12-20T04:11:47.151Z,1003.26
2018-12-20T04:12:47.270Z,1003.25
2018-12-20T04:13:47.229Z,1003.24
2018-12-20T04:14:47.414Z,1003.25
2018-12-20T04:15:47.234Z,1003.32
2018-12-20T04:16:47.431Z,1003.32
2018-12-20T04:17:47.630Z,1003.39
2018-12-20T04:18:47.278Z,1003.41
2018-12-20T04:19:47.278Z,1003.45
2018-12-20T04:20:47.393Z,1003.40
2018-12-20T04:22:47.306Z,1003.39
2018-12-20T04:23:47.452Z,1003.44
2018-12-20T04:24:47.336Z,1003.41
2018-12-20T04:25:47.558Z,1003.43
2018-12-20T04:26:47.364Z,1003.46
2018-12-20T04:27:47.383Z,1003.47
2018-12-20T04:28:47.449Z,1003.45
2018-12-20T04:29:47.668Z,1003.44
2018-12-20T04:31:47.633Z,1003.42
2018-12-20T04:32:47.630Z,1003.42
2018-12-20T04:33:47.483Z,1003.45
2018-12-20T04:35:47.515Z,1003.45
2018-12-20T04:36:47.557Z,1003.43
2018-12-20T04:37:47.630Z,1003.41
2018-12-20T04:38:47.542Z,1003.46
2018-12-20T04:39:47.760Z,1003.49
2018-12-20T04:40:47.592Z,1003.47
2018-12-20T04:42:47.882Z,1003.50
2018-12-20T04:43:47.670Z,1003.50
2018-12-20T04:44:47.655Z,1003.47
2018-12-20T04:45:47.667Z,1003.46
2018-12-20T04:46:47.657Z,1003.46
2018-12-20T04:47:47.675Z,1003.46
2018-12-20T04:48:47.809Z,1003.55
2018-12-20T04:49:47.859Z,1003.55
2018-12-20T04:51:47.787Z,1003.62
2018-12-20T04:52:47.743Z,1003.63
2018-12-20T04:53:47.858Z,1003.71
2018-12-20T04:54:47.837Z,1003.77
2018-12-20T04:55:47.842Z,1003.69
2018-12-20T04:56:47.815Z,1003.73
2018-12-20T04:57:47.820Z,1003.82
2018-12-20T04:58:47.843Z,1003.80
2018-12-20T04:59:47.909Z,1003.77
2018-12-20T05:00:47.897Z,1003.76
2018-12-20T05:01:47.907Z,1003.76
2018-12-20T05:02:47.896Z,1003.76
2018-12-20T05:03:48.241Z,1003.82
2018-12-20T05:04:47.926Z,1003.85
2018-12-20T05:05:48.130Z,1003.81
2018-12-20T05:06:47.971Z,1003.86
2018-12-20T05:07:47.997Z,1003.85
2018-12-20T05:08:48.025Z,1003.89
2018-12-20T05:09:48.223Z,1003.85
2018-12-20T05:10:48.317Z,1003.89
2018-12-20T05:11:48.026Z,1003.88
2018-12-20T05:12:48.118Z,1003.89
2018-12-20T05:13:48.058Z,1003.89
2018-12-20T05:14:48.070Z,1003.88
2018-12-20T05:15:55.864Z,1003.94
2018-12-20T05:16:48.120Z,1003.90
2018-12-20T05:17:48.124Z,1003.96
2018-12-20T05:18:48.348Z,1003.91
2018-12-20T05:19:48.350Z,1003.95
2018-12-20T05:20:48.153Z,1003.92
2018-12-20T05:21:48.399Z,1003.94
2018-12-20T05:23:48.355Z,1003.89
2018-12-20T05:24:48.213Z,1003.88
2018-12-20T05:25:48.400Z,1003.90
2018-12-20T05:26:48.343Z,1003.87
2018-12-20T05:27:48.348Z,1003.84
2018-12-20T05:28:48.475Z,1003.85
2018-12-20T05:29:48.287Z,1003.87
2018-12-20T05:30:48.407Z,1003.87
2018-12-20T05:31:48.348Z,1003.86
2018-12-20T05:32:48.508Z,1003.90
2018-12-20T05:33:48.443Z,1003.93
2018-12-20T05:34:48.379Z,1003.91
2018-12-20T05:35:48.670Z,1003.89
2018-12-20T05:36:48.614Z,1003.91
2018-12-20T05:37:48.628Z,1003.90
2018-12-20T05:38:48.565Z,1003.94
2018-12-20T05:39:48.608Z,1004.01
2018-12-20T05:40:48.622Z,1003.92
2018-12-20T05:41:48.766Z,1003.95
2018-12-20T05:42:48.605Z,1003.93
2018-12-20T05:43:48.768Z,1003.96
2018-12-20T05:44:48.509Z,1004.02
2018-12-20T05:45:48.683Z,1003.93
2018-12-20T05:46:48.536Z,1004.05
2018-12-20T05:47:48.597Z,1003.98
2018-12-20T05:48:48.650Z,1003.96
2018-12-20T05:49:48.609Z,1003.99
2018-12-20T05:50:48.591Z,1003.97
2018-12-20T05:51:48.654Z,1003.99
2018-12-20T05:52:48.814Z,1004.06
2018-12-20T05:53:48.943Z,1004.08
2018-12-20T05:54:48.648Z,1004.02
2018-12-20T05:55:48.795Z,1004.06
2018-12-20T05:56:48.703Z,1004.09
2018-12-20T05:57:48.701Z,1004.12
2018-12-20T05:58:48.708Z,1004.16
2018-12-20T05:59:48.723Z,1004.16
2018-12-20T06:00:48.843Z,1004.25
2018-12-20T06:01:48.821Z,1004.22
2018-12-20T06:02:48.803Z,1004.23
2018-12-20T06:03:48.779Z,1004.26
2018-12-20T06:04:48.799Z,1004.30
2018-12-20T06:05:48.966Z,1004.29
2018-12-20T06:06:48.977Z,1004.30
2018-12-20T06:07:48.880Z,1004.32
2018-12-20T06:08:48.954Z,1004.33
2018-12-20T06:09:49.005Z,1004.35
2018-12-20T06:10:48.904Z,1004.33
2018-12-20T06:11:48.901Z,1004.38
2018-12-20T06:12:48.964Z,1004.32
2018-12-20T06:13:48.949Z,1004.31
2018-12-20T06:14:48.941Z,1004.36
2018-12-20T06:15:48.964Z,1004.45
2018-12-20T06:16:49.007Z,1004.40
2018-12-20T06:17:49.142Z,1004.40
2018-12-20T06:18:49.009Z,1004.39
2018-12-20T06:19:49.258Z,1004.44
2018-12-20T06:20:49.031Z,1004.50
2018-12-20T06:21:49.113Z,1004.48
2018-12-20T06:22:49.060Z,1004.52
2018-12-20T06:23:49.097Z,1004.43
2018-12-20T06:24:49.101Z,1004.43
2018-12-20T06:25:49.102Z,1004.48
2018-12-20T06:26:49.120Z,1004.51
2018-12-20T06:27:49.129Z,1004.46
2018-12-20T06:28:49.153Z,1004.45
2018-12-20T06:29:49.160Z,1004.45
2018-12-20T06:30:49.173Z,1004.45
2018-12-20T06:31:49.187Z,1004.41
2018-12-20T06:32:49.208Z,1004.43
2018-12-20T06:33:49.220Z,1004.50
2018-12-20T06:34:49.231Z,1004.48
2018-12-20T06:35:49.256Z,1004.52
2018-12-20T06:36:49.303Z,1004.53
2018-12-20T06:37:49.288Z,1004.56
2018-12-20T06:38:49.296Z,1004.63
2018-12-20T06:39:49.314Z,1004.58
2018-12-20T06:40:49.351Z,1004.60
2018-12-20T06:41:49.347Z,1004.63
2018-12-20T06:42:49.351Z,1004.63
2018-12-20T06:43:49.368Z,1004.64
2018-12-20T06:44:49.377Z,1004.66
2018-12-20T06:45:49.392Z,1004.63
2018-12-20T06:46:49.405Z,1004.67
2018-12-20T06:47:49.423Z,1004.61
2018-12-20T06:48:49.447Z,1004.62
2018-12-20T06:49:49.450Z,1004.61
2018-12-20T06:50:49.473Z,1004.61
2018-12-20T06:52:49.501Z,1004.61
2018-12-20T06:53:49.507Z,1004.63
2018-12-20T06:54:49.522Z,1004.65
2018-12-20T06:55:49.543Z,1004.61
2018-12-20T06:56:49.554Z,1004.66
2018-12-20T06:57:49.573Z,1004.59
2018-12-20T06:58:49.583Z,1004.55
2018-12-20T07:00:49.618Z,1004.57
2018-12-20T07:01:49.626Z,1004.58
2018-12-20T07:03:49.652Z,1004.56
2018-12-20T07:04:49.668Z,1004.55
2018-12-20T07:05:49.682Z,1004.60
2018-12-20T07:06:49.710Z,1004.58
2018-12-20T07:07:49.721Z,1004.62
2018-12-20T07:08:49.847Z,1004.63
2018-12-20T07:09:49.750Z,1004.62
2018-12-20T07:10:49.757Z,1004.63
2018-12-20T07:11:49.781Z,1004.61
2018-12-20T07:12:49.787Z,1004.59
2018-12-20T07:13:49.798Z,1004.60
2018-12-20T07:14:49.824Z,1004.63
2018-12-20T07:15:49.832Z,1004.56
2018-12-20T07:16:49.845Z,1004.55
2018-12-20T07:17:49.862Z,1004.57
2018-12-20T07:18:49.876Z,1004.60
2018-12-20T07:19:49.888Z,1004.58
2018-12-20T07:20:49.910Z,1004.60
2018-12-20T07:21:49.934Z,1004.58
2018-12-20T07:22:49.941Z,1004.61
2018-12-20T07:23:49.946Z,1004.58
2018-12-20T07:24:49.968Z,1004.60
2018-12-20T07:25:50.021Z,1004.57
2018-12-20T07:26:50.008Z,1004.56
2018-12-20T07:27:50.042Z,1004.63
2018-12-20T07:28:50.130Z,1004.63
2018-12-20T07:29:50.041Z,1004.61
2018-12-20T07:30:50.052Z,1004.65
2018-12-20T07:31:50.065Z,1004.61
2018-12-20T07:32:50.088Z,1004.58
2018-12-20T07:33:50.105Z,1004.63
2018-12-20T07:34:50.110Z,1004.60
2018-12-20T07:35:50.132Z,1004.63
2018-12-20T07:36:50.193Z,1004.61
2018-12-20T07:37:50.179Z,1004.65
2018-12-20T07:38:50.186Z,1004.66
2018-12-20T07:39:50.184Z,1004.73
2018-12-20T07:40:50.201Z,1004.69
2018-12-20T07:42:50.237Z,1004.73
2018-12-20T07:43:50.245Z,1004.74
2018-12-20T07:44:50.264Z,1004.71
2018-12-20T07:45:50.275Z,1004.72
2018-12-20T07:46:50.286Z,1004.70
2018-12-20T07:47:50.297Z,1004.73
2018-12-20T07:48:50.311Z,1004.74
2018-12-20T07:49:50.330Z,1004.73
2018-12-20T07:50:50.344Z,1004.73
2018-12-20T07:51:50.355Z,1004.77
2018-12-20T07:52:50.380Z,1004.80
2018-12-20T07:53:50.467Z,1004.81
2018-12-20T07:54:50.410Z,1004.80
2018-12-20T07:55:50.422Z,1004.84
2018-12-20T07:56:50.440Z,1004.85
2018-12-20T07:57:50.453Z,1004.84
2018-12-20T07:58:50.464Z,1004.84
2018-12-20T07:59:50.472Z,1004.89
2018-12-20T08:00:50.512Z,1004.90
2018-12-20T08:01:50.499Z,1004.88
2018-12-20T08:03:50.529Z,1004.89
2018-12-20T08:04:50.547Z,1004.91
2018-12-20T08:05:50.574Z,1004.90
2018-12-20T08:06:50.600Z,1004.93
2018-12-20T08:07:50.611Z,1004.89
2018-12-20T08:08:50.614Z,1004.88
2018-12-20T08:09:50.628Z,1004.90
2018-12-20T08:10:50.679Z,1004.90
2018-12-20T08:11:50.662Z,1004.88
2018-12-20T08:12:50.666Z,1004.88
2018-12-20T08:13:50.680Z,1004.86
2018-12-20T08:14:50.705Z,1004.89
2018-12-20T08:15:50.800Z,1004.92
2018-12-20T08:16:50.756Z,1004.94
2018-12-20T08:18:50.756Z,1004.98
2018-12-20T08:19:50.774Z,1004.96
2018-12-20T08:20:50.784Z,1005.02
2018-12-20T08:21:50.829Z,1005.00
2018-12-20T08:22:50.810Z,1005.03
2018-12-20T08:23:50.831Z,1005.05
2018-12-20T08:24:50.850Z,1005.05
2018-12-20T08:25:50.861Z,1005.09
2018-12-20T08:26:50.881Z,1005.11
2018-12-20T08:27:50.895Z,1005.17
2018-12-20T08:28:50.899Z,1005.14
2018-12-20T08:29:50.941Z,1005.18
2018-12-20T08:30:50.945Z,1005.16
2018-12-20T08:31:50.948Z,1005.23
2018-12-20T08:32:50.974Z,1005.22
2018-12-20T08:33:50.996Z,1005.19
2018-12-20T08:34:50.988Z,1005.27
2018-12-20T08:35:51.006Z,1005.19
2018-12-20T08:36:51.026Z,1005.19
2018-12-20T08:37:51.036Z,1005.22
2018-12-20T08:38:51.078Z,1005.16
2018-12-20T08:39:51.072Z,1005.18
2018-12-20T08:40:51.100Z,1005.22
2018-12-20T08:41:51.095Z,1005.21
2018-12-20T08:42:51.119Z,1005.21
2018-12-20T08:43:51.126Z,1005.20
2018-12-20T08:44:51.142Z,1005.16
2018-12-20T08:45:51.151Z,1005.17
2018-12-20T08:46:54.437Z,1005.19
2018-12-20T08:47:51.199Z,1005.13
2018-12-20T08:48:51.208Z,1005.13
2018-12-20T08:49:51.217Z,1005.19
2018-12-20T08:50:51.241Z,1005.15
2018-12-20T08:51:51.241Z,1005.19
2018-12-20T08:52:51.263Z,1005.26
2018-12-20T08:53:51.277Z,1005.22
2018-12-20T08:54:51.289Z,1005.21
2018-12-20T08:55:51.309Z,1005.25
2018-12-20T08:56:51.333Z,1005.22
2018-12-20T08:57:51.339Z,1005.21
2018-12-20T08:58:51.349Z,1005.24
2018-12-20T08:59:51.363Z,1005.25
2018-12-20T09:00:51.376Z,1005.31
2018-12-20T09:01:51.394Z,1005.30
2018-12-20T09:02:51.414Z,1005.30
2018-12-20T09:03:51.421Z,1005.32
2018-12-20T09:04:51.434Z,1005.33
2018-12-20T09:05:51.451Z,1005.30
2018-12-20T09:06:51.503Z,1005.26
2018-12-20T09:07:51.486Z,1005.26
2018-12-20T09:08:51.538Z,1005.29
2018-12-20T09:09:51.531Z,1005.25
2018-12-20T09:10:51.541Z,1005.29
2018-12-20T09:11:51.550Z,1005.25
2018-12-20T09:12:51.553Z,1005.26
2018-12-20T09:13:51.594Z,1005.25
2018-12-20T09:14:51.586Z,1005.24
2018-12-20T09:15:51.603Z,1005.27
2018-12-20T09:16:51.634Z,1005.30
2018-12-20T09:17:51.634Z,1005.30
2018-12-20T09:18:51.651Z,1005.34
2018-12-20T09:19:51.726Z,1005.29
2018-12-20T09:20:51.675Z,1005.28
2018-12-20T09:21:51.693Z,1005.30
2018-12-20T09:22:51.715Z,1005.28
2018-12-20T09:24:51.763Z,1005.32
2018-12-20T09:25:51.770Z,1005.32
2018-12-20T09:26:51.789Z,1005.33
2018-12-20T09:27:51.778Z,1005.32
2018-12-20T09:28:53.263Z,1005.33
2018-12-20T09:29:51.820Z,1005.34
2018-12-20T09:30:51.825Z,1005.35
2018-12-20T09:31:51.848Z,1005.36
2018-12-20T09:32:51.861Z,1005.35
2018-12-20T09:33:51.884Z,1005.32
2018-12-20T09:34:51.889Z,1005.31
2018-12-20T09:35:51.905Z,1005.31
2018-12-20T09:36:51.932Z,1005.32
2018-12-20T09:37:51.938Z,1005.27
2018-12-20T09:38:51.951Z,1005.30
2018-12-20T09:39:52.031Z,1005.29
2018-12-20T09:40:51.986Z,1005.26
2018-12-20T09:41:52.002Z,1005.27
2018-12-20T09:42:52.017Z,1005.25
2018-12-20T09:43:52.026Z,1005.31
2018-12-20T09:44:52.055Z,1005.29
2018-12-20T09:45:52.067Z,1005.27
2018-12-20T09:46:52.072Z,1005.27
2018-12-20T09:47:52.096Z,1005.23
2018-12-20T09:48:52.117Z,1005.19
2018-12-20T09:49:52.154Z,1005.26
2018-12-20T09:50:52.133Z,1005.26
2018-12-20T09:51:52.154Z,1005.24
2018-12-20T09:52:52.172Z,1005.25
2018-12-20T09:53:52.241Z,1005.25
2018-12-20T09:54:52.223Z,1005.27
2018-12-20T09:55:52.236Z,1005.29
2018-12-20T09:56:52.224Z,1005.24
2018-12-20T09:57:52.245Z,1005.22
2018-12-20T09:58:52.259Z,1005.25
2018-12-20T09:59:52.267Z,1005.23
2018-12-20T10:00:52.292Z,1005.30
2018-12-20T10:01:52.307Z,1005.31
2018-12-20T10:02:52.331Z,1005.25
2018-12-20T10:03:52.366Z,1005.28
2018-12-20T10:04:52.354Z,1005.23
2018-12-20T10:05:52.372Z,1005.23
2018-12-20T10:06:52.378Z,1005.17
2018-12-20T10:07:52.398Z,1005.25
2018-12-20T10:08:52.409Z,1005.21
2018-12-20T10:09:52.468Z,1005.25
2018-12-20T10:10:52.433Z,1005.27
2018-12-20T10:11:52.456Z,1005.26
2018-12-20T10:12:52.484Z,1005.27
2018-12-20T10:13:52.493Z,1005.25
2018-12-20T10:14:52.500Z,1005.26
2018-12-20T10:15:52.567Z,1005.26
2018-12-20T10:17:52.545Z,1005.23
2018-12-20T10:18:52.559Z,1005.33
2018-12-20T10:19:52.572Z,1005.29
2018-12-20T10:20:52.595Z,1005.28
2018-12-20T10:21:52.643Z,1005.30
2018-12-20T10:22:52.619Z,1005.31
2018-12-20T10:23:52.639Z,1005.35
2018-12-20T10:24:52.659Z,1005.33
2018-12-20T10:25:52.677Z,1005.28
2018-12-20T10:26:52.685Z,1005.31
2018-12-20T10:27:52.694Z,1005.30
2018-12-20T10:28:52.713Z,1005.34
2018-12-20T10:29:52.726Z,1005.38
2018-12-20T10:30:52.768Z,1005.30
2018-12-20T10:31:52.770Z,1005.37
2018-12-20T10:32:52.803Z,1005.37
2018-12-20T10:33:52.796Z,1005.33
2018-12-20T10:34:52.888Z,1005.27
2018-12-20T10:35:52.817Z,1005.24
2018-12-20T10:36:52.829Z,1005.29
2018-12-20T10:37:52.866Z,1005.23
2018-12-20T10:38:52.870Z,1005.23
2018-12-20T10:39:52.886Z,1005.16
2018-12-20T10:40:52.895Z,1005.16
2018-12-20T10:41:52.907Z,1005.21
2018-12-20T10:42:52.924Z,1005.17
2018-12-20T10:44:52.957Z,1005.19
2018-12-20T10:45:52.977Z,1005.20
2018-12-20T10:46:52.987Z,1005.13
2018-12-20T10:47:53.000Z,1005.12
2018-12-20T10:48:53.031Z,1005.14
2018-12-20T10:49:53.183Z,1005.13
2018-12-20T10:50:53.063Z,1005.13
2018-12-20T10:51:53.061Z,1005.15
2018-12-20T10:53:53.154Z,1005.08
2018-12-20T10:54:53.113Z,1005.11
2018-12-20T10:55:53.128Z,1005.11
2018-12-20T10:56:53.153Z,1005.06
2018-12-20T10:57:53.153Z,1005.05
2018-12-20T10:58:53.217Z,1004.96
2018-12-20T10:59:53.210Z,1004.97
2018-12-20T11:00:53.201Z,1005.03
2018-12-20T11:01:53.222Z,1004.97
2018-12-20T11:02:53.270Z,1004.93
2018-12-20T11:03:53.278Z,1004.94
2018-12-20T11:04:53.259Z,1004.98
2018-12-20T11:05:53.281Z,1004.89
2018-12-20T11:06:53.294Z,1004.90
2018-12-20T11:07:53.314Z,1004.92
2018-12-20T11:08:53.323Z,1004.94
2018-12-20T11:09:53.335Z,1004.94
2018-12-20T11:10:53.355Z,1004.92
2018-12-20T11:11:53.368Z,1004.99
2018-12-20T11:12:53.386Z,1004.97
2018-12-20T11:13:53.394Z,1004.98
2018-12-20T11:14:53.523Z,1005.00
2018-12-20T11:15:53.422Z,1004.98
2018-12-20T11:16:53.445Z,1004.97
2018-12-20T11:17:53.499Z,1004.96
2018-12-20T11:19:53.497Z,1004.96
2018-12-20T11:20:53.502Z,1004.93
2018-12-20T11:21:53.555Z,1004.97
2018-12-20T11:22:53.557Z,1004.97
2018-12-20T11:23:53.546Z,1004.99
2018-12-20T11:24:53.565Z,1004.97
2018-12-20T11:25:53.577Z,1004.95
2018-12-20T11:26:53.593Z,1004.97
2018-12-20T11:27:53.613Z,1005.00
2018-12-20T11:28:53.648Z,1004.93
2018-12-20T11:29:53.640Z,1004.96
2018-12-20T11:30:53.653Z,1004.99
2018-12-20T11:31:53.668Z,1004.96
2018-12-20T11:32:53.693Z,1004.96
2018-12-20T11:33:53.707Z,1004.95
2018-12-20T11:34:53.890Z,1005.04
2018-12-20T11:35:53.737Z,1004.99
2018-12-20T11:36:53.777Z,1004.96
2018-12-20T11:37:53.765Z,1005.03
2018-12-20T11:38:53.787Z,1004.99
2018-12-20T11:39:59.459Z,1005.04
2018-12-20T11:40:54.738Z,1005.05
2018-12-20T11:41:53.877Z,1005.05
2018-12-20T11:42:53.867Z,1005.03
2018-12-20T11:44:53.908Z,1005.14
2018-12-20T11:45:53.955Z,1005.03
2018-12-20T11:46:53.912Z,1005.03
2018-12-20T11:47:53.990Z,1005.09
2018-12-20T11:48:53.954Z,1005.01
2018-12-20T11:49:53.968Z,1005.06
2018-12-20T11:50:53.957Z,1005.07
2018-12-20T11:51:54.008Z,1005.08
2018-12-20T11:52:54.010Z,1005.10
2018-12-20T11:53:54.007Z,1005.04
2018-12-20T11:54:54.371Z,1005.04
2018-12-20T11:55:54.116Z,1005.14
2018-12-20T11:56:54.060Z,1005.06
2018-12-20T11:57:54.065Z,1005.03
2018-12-20T11:58:54.088Z,1004.99
2018-12-20T11:59:54.104Z,1004.97
2018-12-20T12:00:54.119Z,1005.00
2018-12-20T12:01:54.123Z,1005.01
2018-12-20T12:02:54.169Z,1004.99
2018-12-20T12:04:54.193Z,1004.97
2018-12-20T12:05:54.190Z,1004.98
2018-12-20T12:06:54.210Z,1004.85
2018-12-20T12:07:54.219Z,1004.89
2018-12-20T12:08:54.237Z,1004.81
2018-12-20T12:09:54.257Z,1004.90
2018-12-20T12:10:54.264Z,1004.90
2018-12-20T12:11:54.277Z,1004.95
2018-12-20T12:12:54.304Z,1004.89
2018-12-20T12:13:54.307Z,1004.88
2018-12-20T12:14:54.339Z,1004.85
2018-12-20T12:15:54.388Z,1004.88
2018-12-20T12:16:54.354Z,1004.90
2018-12-20T12:17:54.631Z,1004.82
2018-12-20T12:18:54.385Z,1004.97
2018-12-20T12:19:54.404Z,1004.85
2018-12-20T12:20:54.418Z,1004.85
2018-12-20T12:21:54.471Z,1004.83
2018-12-20T12:22:54.444Z,1004.86
2018-12-20T12:23:54.470Z,1004.83
2018-12-20T12:24:54.476Z,1004.81
2018-12-20T12:25:54.505Z,1004.84
2018-12-20T12:26:54.520Z,1004.86
2018-12-20T12:27:54.533Z,1004.83
2018-12-20T12:28:54.542Z,1004.85
2018-12-20T12:29:54.591Z,1004.80
2018-12-20T12:30:54.573Z,1004.82
2018-12-20T12:31:54.588Z,1004.80
2018-12-20T12:32:54.691Z,1004.80
2018-12-20T12:33:54.617Z,1004.82
2018-12-20T12:34:54.633Z,1004.90
2018-12-20T12:35:54.662Z,1004.81